Houston, Texas
Traffic Map
Current Weather Conditions
Houston, Texas
Broken Clouds
Broken Clouds
78°
Feels Like: 80°
Wind Chill: 78° Ceiling: 4200
Heat Index: 80° Visibility: 10mi
Dew Point: 69° Wind: 14mph
Humidity: 74% Direction: 170° (S)
Pressure: 29.58in Gusts: 22mph
Raw Report DataKIAH 260053Z 17012G19KT 10SM FEW023 SCT028 BKN042 26/21 A2958 RMK AO2 SLP016 T02560206
Traffic Incident Summary
Active as of:
Severity:
Category:
InformationThere was an issue retrieving the traffic information for this location. Please try a different location or try again shortly.
Advertisements
Track Severe Weather on mobile